Time;durP1;ratioP1;P1;durP2;ratioP2;P2;SDS_P1;SDS_P2;PMS_P1;PMS_P2;Temp;Humidity;BMP_temperature;BMP_pressure;BME280_temperature;BME280_humidity;BME280_pressure;Samples;Min_cycle;Max_cycle;Signal;HPM_P1;HPM_P2
2024/03/12 00:01:08;;;;;;;15.70;14.00;;;8.00;99.90;;;;;;5055671;28;20473;-67
2024/03/12 00:03:35;;;;;;;16.60;14.80;;;7.90;99.90;;;;;;5057047;28;20876;-67
2024/03/12 00:06:03;;;;;;;16.43;14.10;;;7.90;99.90;;;;;;5057349;28;20462;-68
2024/03/12 00:08:30;;;;;;;17.37;14.57;;;7.90;99.90;;;;;;5057162;28;20458;-67
2024/03/12 00:10:57;;;;;;;18.73;16.10;;;7.90;99.90;;;;;;5056976;28;20573;-68
2024/03/12 00:13:26;;;;;;;18.17;15.97;;;7.90;99.90;;;;;;5057179;28;20462;-67
2024/03/12 00:15:54;;;;;;;16.70;14.83;;;7.80;99.90;;;;;;5056863;28;20462;-67
2024/03/12 00:18:24;;;;;;;17.73;15.03;;;7.80;99.90;;;;;;5056797;28;20577;-68
2024/03/12 00:20:52;;;;;;;17.30;15.17;;;7.80;99.90;;;;;;5056848;28;20469;-68
2024/03/12 00:23:20;;;;;;;17.20;15.40;;;7.90;99.90;;;;;;5056986;28;20479;-69
2024/03/12 00:25:47;;;;;;;18.47;16.27;;;7.80;99.90;;;;;;5057869;28;20955;-67
2024/03/12 00:28:14;;;;;;;17.70;15.43;;;7.80;99.90;;;;;;5061206;28;20559;-67
2024/03/12 00:30:44;;;;;;;18.20;16.17;;;7.80;99.90;;;;;;5060574;28;20515;-67
2024/03/12 00:33:11;;;;;;;18.53;15.50;;;7.80;99.90;;;;;;5061261;28;20468;-67
2024/03/12 00:35:43;;;;;;;18.70;16.60;;;7.70;99.90;;;;;;5061152;28;20531;-67
2024/03/12 00:38:10;;;;;;;19.70;16.40;;;7.80;99.90;;;;;;5060625;28;20462;-67
2024/03/12 00:40:38;;;;;;;18.50;16.57;;;7.70;94.10;;;;;;5060861;28;20934;-67
2024/03/12 00:43:07;;;;;;;18.47;16.30;;;7.70;99.90;;;;;;5060892;28;20465;-66
2024/03/12 00:45:37;;;;;;;22.60;17.90;;;7.70;99.90;;;;;;5061012;28;20469;-67
2024/03/12 00:48:09;;;;;;;20.30;17.20;;;7.80;99.90;;;;;;5060562;28;20458;-67
2024/03/12 00:50:36;;;;;;;20.83;17.70;;;7.70;99.90;;;;;;5060346;28;20466;-67
2024/03/12 00:53:04;;;;;;;20.53;18.33;;;7.70;64.10;;;;;;5060402;28;20458;-66
2024/03/12 00:55:31;;;;;;;23.93;18.50;;;7.70;46.10;;;;;;5060550;28;20895;-66
2024/03/12 00:58:00;;;;;;;21.83;17.97;;;7.70;43.70;;;;;;5060548;28;20458;-66
2024/03/12 01:00:28;;;;;;;23.30;18.10;;;7.70;19.30;;;;;;5060106;28;20497;-66
2024/03/12 01:02:58;;;;;;;23.93;19.90;;;7.60;34.70;;;;;;5060455;28;20954;-67
2024/03/12 01:05:30;;;;;;;25.67;20.53;;;7.70;94.50;;;;;;5060505;28;20907;-67
2024/03/12 01:07:59;;;;;;;26.10;19.80;;;7.80;99.90;;;;;;5060096;28;20508;-67
2024/03/12 01:10:28;;;;;;;25.00;19.90;;;7.70;99.90;;;;;;5060024;28;20458;-67
2024/03/12 01:12:57;;;;;;;24.70;20.47;;;7.70;99.90;;;;;;5060395;28;20531;-67
2024/03/12 01:15:26;;;;;;;31.53;22.13;;;7.70;99.90;;;;;;5060416;28;20458;-67
2024/03/12 01:17:54;;;;;;;26.50;20.97;;;7.70;99.90;;;;;;5060114;28;20482;-67
2024/03/12 01:20:24;;;;;;;31.20;23.73;;;7.70;34.70;;;;;;5059656;28;20540;-67
2024/03/12 01:22:54;;;;;;;30.30;22.80;;;7.70;94.30;;;;;;5059763;28;20566;-67
2024/03/12 01:25:22;;;;;;;32.47;24.57;;;7.70;99.90;;;;;;5059969;28;20462;-66
2024/03/12 01:27:51;;;;;;;32.97;24.50;;;7.70;99.90;;;;;;5059350;28;21022;-66
2024/03/12 01:30:20;;;;;;;37.80;27.57;;;7.60;99.90;;;;;;5059947;28;20469;-65
2024/03/12 01:32:51;;;;;;;38.93;27.70;;;7.70;99.90;;;;;;5059776;28;20833;-66
2024/03/12 01:35:20;;;;;;;34.10;23.80;;;7.70;99.90;;;;;;5059906;28;20454;-66
2024/03/12 01:37:49;;;;;;;37.30;26.97;;;7.70;99.90;;;;;;5059014;28;20556;-66
2024/03/12 01:40:23;;;;;;;38.60;25.87;;;7.70;99.90;;;;;;5059368;28;20494;-66
2024/03/12 01:42:51;;;;;;;30.30;22.03;;;7.60;99.90;;;;;;5059613;28;20521;-67
2024/03/12 01:45:22;;;;;;;33.53;25.10;;;7.70;99.90;;;;;;5059631;28;20519;-67
2024/03/12 01:47:49;;;;;;;37.27;25.40;;;7.70;99.90;;;;;;5059598;28;20907;-67
2024/03/12 01:50:18;;;;;;;35.97;25.30;;;7.70;99.90;;;;;;5059491;28;20467;-67
2024/03/12 01:52:46;;;;;;;31.77;23.57;;;7.70;99.90;;;;;;5059042;28;20796;-68
2024/03/12 01:55:14;;;;;;;33.00;23.07;;;7.60;1.00;;;;;;5059757;28;20506;-67
2024/03/12 01:57:45;;;;;;;35.10;25.37;;;7.70;1.00;;;;;;5059356;28;20498;-68
2024/03/12 02:00:14;;;;;;;35.57;25.03;;;7.60;1.00;;;;;;5059118;28;20589;-68
2024/03/12 02:02:42;;;;;;;40.67;28.30;;;7.60;1.00;;;;;;5057679;28;20557;-67
2024/03/12 02:05:11;;;;;;;44.80;31.13;;;7.60;1.00;;;;;;5057587;28;20872;-66
2024/03/12 02:07:40;;;;;;;52.47;33.93;;;7.60;33.40;;;;;;5058796;28;20469;-62
2024/03/12 02:10:09;;;;;;;55.00;36.83;;;7.60;99.90;;;;;;5059022;28;20477;-65
2024/03/12 02:12:37;;;;;;;54.13;35.07;;;7.50;99.90;;;;;;5058643;28;20562;-66
2024/03/12 02:15:06;;;;;;;58.83;35.87;;;7.40;99.90;;;;;;5058920;28;20494;-66
2024/03/12 02:17:35;;;;;;;59.73;36.00;;;7.40;99.90;;;;;;5059397;28;20469;-67
2024/03/12 02:20:03;;;;;;;57.13;38.90;;;7.40;99.90;;;;;;5059111;28;20548;-67
2024/03/12 02:22:31;;;;;;;60.83;39.10;;;7.40;99.90;;;;;;5058775;28;20466;-67
2024/03/12 02:25:00;;;;;;;66.07;40.17;;;7.40;99.90;;;;;;5059063;28;20474;-67
2024/03/12 02:27:28;;;;;;;68.43;42.20;;;7.40;99.90;;;;;;5058371;28;20514;-66
2024/03/12 02:29:55;;;;;;;69.53;39.23;;;7.40;99.90;;;;;;5058559;28;20550;-66
2024/03/12 02:32:23;;;;;;;65.83;38.30;;;7.30;99.90;;;;;;5058606;28;20917;-66
2024/03/12 02:34:51;;;;;;;67.67;38.57;;;7.20;99.90;;;;;;5058536;28;20465;-66
2024/03/12 02:37:21;;;;;;;69.03;42.47;;;7.20;99.90;;;;;;5058746;28;20458;-67
2024/03/12 02:39:48;;;;;;;73.30;40.90;;;7.20;99.90;;;;;;5057927;28;20505;-66
2024/03/12 02:42:17;;;;;;;65.57;37.40;;;7.20;99.90;;;;;;5058220;28;20775;-66
2024/03/12 02:44:44;;;;;;;63.60;38.20;;;7.20;99.90;;;;;;5058478;28;20513;-65
2024/03/12 02:47:11;;;;;;;62.80;38.73;;;7.20;99.90;;;;;;5058185;28;20460;-66
2024/03/12 02:49:39;;;;;;;66.63;38.10;;;7.20;99.90;;;;;;5058063;28;20536;-65
2024/03/12 02:52:07;;;;;;;68.70;39.37;;;7.20;99.90;;;;;;5058261;28;20532;-66
2024/03/12 02:54:34;;;;;;;66.07;38.50;;;7.20;99.90;;;;;;5058165;28;20496;-66
2024/03/12 02:57:01;;;;;;;66.37;37.47;;;7.20;99.90;;;;;;5058271;28;20462;-63
2024/03/12 02:59:30;;;;;;;60.90;38.20;;;7.20;99.90;;;;;;5058003;28;20494;-65
2024/03/12 03:01:57;;;;;;;63.30;37.93;;;7.20;99.90;;;;;;5057670;28;20466;-66
2024/03/12 03:04:25;;;;;;;60.30;36.00;;;7.20;99.90;;;;;;5057888;28;20509;-66
2024/03/12 03:06:57;;;;;;;57.90;35.90;;;7.20;99.90;;;;;;5057941;28;20484;-66
2024/03/12 03:09:25;;;;;;;58.47;35.53;;;7.20;99.90;;;;;;5058092;28;20528;-64
2024/03/12 03:11:52;;;;;;;54.77;34.23;;;7.20;99.90;;;;;;5057865;28;20463;-65
2024/03/12 03:14:20;;;;;;;57.07;36.50;;;7.20;99.90;;;;;;5057670;28;20521;-66
2024/03/12 03:16:49;;;;;;;58.57;34.83;;;7.20;99.90;;;;;;5057664;28;20498;-65
2024/03/12 03:19:17;;;;;;;51.57;33.50;;;7.20;99.90;;;;;;5058017;28;20494;-65
2024/03/12 03:21:44;;;;;;;54.10;35.07;;;7.10;99.90;;;;;;5057584;28;20540;-65
2024/03/12 03:24:11;;;;;;;50.10;32.40;;;7.10;99.90;;;;;;5057143;28;20468;-65
2024/03/12 03:26:38;;;;;;;41.90;30.63;;;7.20;99.90;;;;;;5057473;28;20947;-64
2024/03/12 03:29:06;;;;;;;47.27;32.13;;;7.20;99.90;;;;;;5057692;28;20884;-65
2024/03/12 03:31:33;;;;;;;45.87;30.20;;;7.10;99.90;;;;;;5057770;28;20466;-65
2024/03/12 03:34:04;;;;;;;46.33;30.33;;;7.10;99.90;;;;;;5057290;28;20485;-65
2024/03/12 03:36:32;;;;;;;44.17;29.80;;;7.20;99.90;;;;;;5057160;28;20469;-65
2024/03/12 03:39:00;;;;;;;45.73;31.57;;;7.20;99.90;;;;;;5057790;28;20729;-65
2024/03/12 03:41:29;;;;;;;43.17;30.90;;;7.20;99.90;;;;;;5057688;28;20548;-66
2024/03/12 03:43:57;;;;;;;40.77;29.17;;;7.10;99.90;;;;;;5057241;28;20520;-65
2024/03/12 03:46:24;;;;;;;38.37;26.10;;;7.20;99.90;;;;;;5057341;28;20958;-65
2024/03/12 03:48:52;;;;;;;42.27;28.47;;;7.20;99.90;;;;;;5057636;28;20454;-65
2024/03/12 03:51:21;;;;;;;39.03;28.40;;;7.10;99.90;;;;;;5057552;28;20461;-65
2024/03/12 03:53:49;;;;;;;39.27;26.53;;;7.20;99.90;;;;;;5057373;28;20507;-65
2024/03/12 03:56:17;;;;;;;33.20;25.00;;;7.20;99.90;;;;;;5056966;28;20516;-65
2024/03/12 03:58:44;;;;;;;35.23;25.50;;;7.20;99.90;;;;;;5057403;28;20519;-65
2024/03/12 04:01:13;;;;;;;33.40;24.00;;;7.20;99.90;;;;;;5056587;28;20496;-64
2024/03/12 04:03:41;;;;;;;34.90;23.90;;;7.10;99.90;;;;;;5057079;28;20458;-63
2024/03/12 04:06:08;;;;;;;26.80;21.73;;;7.10;99.90;;;;;;5056129;28;20821;-64
2024/03/12 04:08:37;;;;;;;29.83;22.60;;;7.10;99.90;;;;;;5055947;28;20494;-65
2024/03/12 04:11:04;;;;;;;30.17;23.23;;;7.10;99.90;;;;;;5056254;28;20550;-65
2024/03/12 04:13:33;;;;;;;32.53;21.80;;;7.10;99.90;;;;;;5056997;28;20718;-65
2024/03/12 04:16:00;;;;;;;30.20;22.30;;;7.00;99.90;;;;;;5056660;28;20466;-66
2024/03/12 04:18:27;;;;;;;30.40;22.53;;;7.00;99.90;;;;;;5056603;28;20466;-66
2024/03/12 04:20:55;;;;;;;26.90;20.17;;;7.10;99.90;;;;;;5056924;28;20582;-66
2024/03/12 04:23:23;;;;;;;27.60;19.30;;;7.10;99.90;;;;;;5056927;28;20454;-67
2024/03/12 04:25:53;;;;;;;30.70;22.20;;;7.00;99.90;;;;;;5056475;28;20486;-67
2024/03/12 04:28:20;;;;;;;25.50;18.33;;;7.00;99.90;;;;;;5054922;28;20842;-66
2024/03/12 04:30:48;;;;;;;25.80;19.83;;;7.00;99.90;;;;;;5055203;28;20450;-65
2024/03/12 04:33:17;;;;;;;24.97;19.63;;;7.00;99.90;;;;;;5055535;28;20635;-65
2024/03/12 04:35:45;;;;;;;25.93;19.70;;;6.90;99.90;;;;;;5055029;28;20462;-66
2024/03/12 04:38:14;;;;;;;26.40;18.73;;;6.90;99.90;;;;;;5055137;28;20509;-66
2024/03/12 04:40:41;;;;;;;23.70;17.83;;;6.90;99.90;;;;;;5055106;28;20490;-66
2024/03/12 04:43:11;;;;;;;26.47;20.27;;;6.90;99.90;;;;;;5056832;28;20528;-64
2024/03/12 04:45:40;;;;;;;25.20;19.07;;;7.00;99.90;;;;;;5070208;28;20454;-66
2024/03/12 04:48:09;;;;;;;25.87;19.47;;;6.90;99.90;;;;;;5076724;28;20465;-64
2024/03/12 04:50:37;;;;;;;27.40;20.10;;;6.90;99.90;;;;;;5076667;28;20781;-66
2024/03/12 04:53:04;;;;;;;26.93;21.20;;;6.90;99.90;;;;;;5076887;28;20496;-66
2024/03/12 04:55:33;;;;;;;25.50;18.87;;;6.90;99.90;;;;;;5076797;28;20457;-66
2024/03/12 04:58:01;;;;;;;26.40;20.33;;;6.90;99.90;;;;;;5076128;28;20531;-67
2024/03/12 05:00:29;;;;;;;25.40;18.93;;;6.90;99.90;;;;;;5075310;28;20489;-69
2024/03/12 05:02:57;;;;;;;28.07;19.70;;;6.90;99.90;;;;;;5074755;28;20465;-71
2024/03/12 05:05:25;;;;;;;27.27;19.00;;;6.90;99.90;;;;;;5075090;28;20717;-70
2024/03/12 05:07:53;;;;;;;27.93;18.70;;;6.90;99.90;;;;;;5074981;28;20754;-70
2024/03/12 05:10:22;;;;;;;24.57;18.93;;;6.90;99.90;;;;;;5074890;28;20875;-68
2024/03/12 05:12:51;;;;;;;24.70;20.17;;;7.00;99.90;;;;;;5077390;28;20514;-68
2024/03/12 05:15:19;;;;;;;28.10;21.40;;;6.90;99.90;;;;;;5080258;28;20483;-67
2024/03/12 05:17:48;;;;;;;33.27;22.13;;;6.90;99.90;;;;;;5079358;28;20519;-67
2024/03/12 05:20:17;;;;;;;28.80;23.73;;;6.90;99.90;;;;;;5079624;28;20594;-68
2024/03/12 05:22:44;;;;;;;31.63;22.50;;;6.90;99.90;;;;;;5079875;28;20435;-68
2024/03/12 05:25:19;;;;;;;29.50;22.43;;;6.90;99.90;;;;;;5080132;28;20496;-68
2024/03/12 05:27:47;;;;;;;32.93;22.80;;;6.90;99.90;;;;;;5079333;28;20492;-69
2024/03/12 05:30:15;;;;;;;29.50;21.33;;;6.90;99.90;;;;;;5079460;28;20465;-68
2024/03/12 05:32:47;;;;;;;29.73;22.00;;;6.80;99.90;;;;;;5079479;28;20823;-68
2024/03/12 05:35:21;;;;;;;32.60;21.73;;;6.80;99.90;;;;;;5079765;28;20473;-69
2024/03/12 05:38:10;;;;;;;36.20;23.87;;;6.80;99.90;;;;;;5079364;28;20515;-69
2024/03/12 05:40:42;;;;;;;29.70;23.37;;;6.80;99.90;;;;;;5079641;28;20493;-68
2024/03/12 05:48:40;;;;;;;25.73;20.53;;;6.90;99.90;;;;;;5079081;28;20756;-68
2024/03/12 05:51:09;;;;;;;27.00;21.33;;;6.90;99.90;;;;;;5079638;28;20462;-69
2024/03/12 05:53:37;;;;;;;28.73;21.67;;;6.90;99.90;;;;;;5079500;28;20907;-69
2024/03/12 05:56:06;;;;;;;29.30;21.13;;;6.90;99.90;;;;;;5078977;28;20469;-68
2024/03/12 05:58:34;;;;;;;25.00;20.73;;;6.90;99.90;;;;;;5079569;28;20469;-68
2024/03/12 06:01:02;;;;;;;28.97;19.93;;;6.80;99.90;;;;;;5079049;28;20551;-67
2024/03/12 06:03:29;;;;;;;26.60;21.03;;;6.80;99.90;;;;;;5078642;28;20465;-67
2024/03/12 06:05:57;;;;;;;25.20;20.67;;;6.80;99.90;;;;;;5078879;28;20464;-68
2024/03/12 06:08:25;;;;;;;23.47;19.70;;;6.80;99.90;;;;;;5078833;28;20515;-68
2024/03/12 06:10:53;;;;;;;24.00;20.33;;;6.80;99.90;;;;;;5078935;28;20461;-68
2024/03/12 06:13:22;;;;;;;27.00;20.33;;;6.90;99.90;;;;;;5078986;28;20436;-68
2024/03/12 06:15:50;;;;;;;26.00;20.33;;;6.90;99.90;;;;;;5078487;28;20465;-67
2024/03/12 06:18:19;;;;;;;24.37;17.97;;;6.90;99.90;;;;;;5078379;28;20465;-70
2024/03/12 06:20:46;;;;;;;22.53;18.37;;;6.90;99.90;;;;;;5078671;28;20485;-68
2024/03/12 06:23:14;;;;;;;19.80;17.10;;;7.00;99.90;;;;;;5077585;28;20465;-67
2024/03/12 06:25:43;;;;;;;19.30;15.60;;;6.90;99.90;;;;;;5078327;28;20454;-67
2024/03/12 06:28:11;;;;;;;20.30;15.03;;;6.90;99.90;;;;;;5078340;28;20580;-68
2024/03/12 06:30:39;;;;;;;19.30;15.73;;;6.80;99.90;;;;;;5078911;28;20560;-68
2024/03/12 06:33:07;;;;;;;17.97;15.80;;;6.90;99.90;;;;;;5079199;28;20913;-66
2024/03/12 06:35:35;;;;;;;22.70;16.17;;;6.80;99.90;;;;;;5078985;28;20497;-66
2024/03/12 06:38:05;;;;;;;18.13;15.60;;;6.80;99.90;;;;;;5078072;28;20457;-66
2024/03/12 06:40:32;;;;;;;23.00;18.90;;;6.90;99.90;;;;;;5078598;28;20489;-65
2024/03/12 06:43:01;;;;;;;27.07;21.10;;;6.80;99.90;;;;;;5078452;28;20578;-65
2024/03/12 06:45:28;;;;;;;27.97;20.70;;;6.90;99.90;;;;;;5078282;28;20472;-65
2024/03/12 06:47:56;;;;;;;25.17;18.80;;;6.80;99.90;;;;;;5078298;28;20904;-65
2024/03/12 06:50:25;;;;;;;26.50;20.43;;;6.80;99.90;;;;;;5077322;28;20523;-67
2024/03/12 06:52:53;;;;;;;24.00;20.00;;;6.80;99.90;;;;;;5077547;28;20457;-67
2024/03/12 06:55:23;;;;;;;29.60;22.40;;;6.80;99.90;;;;;;5078422;28;20551;-66
2024/03/12 06:57:54;;;;;;;28.17;21.13;;;6.90;99.90;;;;;;5077249;28;20480;-67
2024/03/12 07:00:31;;;;;;;25.80;21.20;;;6.80;99.90;;;;;;5077998;28;20913;-66
2024/03/12 07:02:59;;;;;;;30.37;21.97;;;6.80;99.90;;;;;;5078562;28;20945;-67
2024/03/12 07:05:29;;;;;;;25.83;21.40;;;6.80;99.90;;;;;;5078142;28;20515;-66
2024/03/12 07:07:57;;;;;;;26.33;20.73;;;6.80;99.90;;;;;;5077940;28;20469;-65
2024/03/12 07:10:26;;;;;;;25.90;20.57;;;6.80;99.90;;;;;;5077707;28;20462;-66
2024/03/12 07:12:53;;;;;;;24.73;19.90;;;6.80;99.90;;;;;;5077647;28;20461;-67
2024/03/12 07:15:21;;;;;;;30.73;22.00;;;6.90;99.90;;;;;;5077722;28;20465;-67
2024/03/12 07:17:50;;;;;;;25.53;20.77;;;6.80;99.90;;;;;;5077493;28;20461;-67
2024/03/12 07:20:20;;;;;;;26.27;21.47;;;6.90;99.90;;;;;;5076649;28;20465;-67
2024/03/12 07:22:47;;;;;;;24.00;20.60;;;6.90;99.90;;;;;;5078168;28;20956;-66
2024/03/12 07:25:15;;;;;;;27.93;21.87;;;6.90;99.90;;;;;;5077507;28;20453;-67
2024/03/12 07:27:43;;;;;;;25.97;21.00;;;6.90;99.90;;;;;;5077064;28;20489;-66
2024/03/12 07:30:12;;;;;;;28.50;22.30;;;6.90;99.90;;;;;;5077705;28;20461;-66
2024/03/12 07:32:42;;;;;;;25.73;21.30;;;6.90;99.90;;;;;;5077651;28;20559;-66
2024/03/12 07:35:11;;;;;;;28.30;21.70;;;6.90;99.90;;;;;;5077102;28;20468;-66
2024/03/12 07:37:39;;;;;;;24.80;20.60;;;6.90;99.90;;;;;;5077529;28;20749;-67
2024/03/12 07:40:09;;;;;;;24.90;19.77;;;6.90;99.90;;;;;;5077257;28;20472;-66
2024/03/12 07:42:38;;;;;;;26.57;19.17;;;6.90;99.90;;;;;;5077289;28;20515;-67
2024/03/12 07:45:06;;;;;;;24.80;20.73;;;6.90;99.90;;;;;;5077376;28;20472;-67
2024/03/12 07:47:33;;;;;;;29.07;21.50;;;6.80;99.90;;;;;;5077508;28;20457;-67
2024/03/12 07:50:02;;;;;;;27.37;20.70;;;6.90;99.90;;;;;;5077196;28;20878;-67
2024/03/12 07:52:31;;;;;;;23.53;19.60;;;6.90;99.90;;;;;;5077420;28;20461;-68
2024/03/12 07:54:59;;;;;;;26.93;19.70;;;6.80;99.90;;;;;;5076953;28;20459;-67
2024/03/12 07:57:26;;;;;;;27.30;19.53;;;6.80;99.90;;;;;;5077653;28;20901;-66
2024/03/12 07:59:54;;;;;;;23.97;19.90;;;6.80;99.90;;;;;;5077139;28;20465;-66
2024/03/12 08:02:22;;;;;;;29.03;21.10;;;6.80;99.90;;;;;;5076839;28;20879;-66
2024/03/12 08:04:49;;;;;;;31.20;21.83;;;6.80;99.90;;;;;;5077121;28;20501;-67
2024/03/12 08:07:19;;;;;;;28.80;21.17;;;6.80;99.90;;;;;;5077158;28;20495;-67
2024/03/12 08:09:49;;;;;;;28.93;21.00;;;6.80;99.90;;;;;;5076385;28;20457;-66
2024/03/12 08:12:16;;;;;;;25.20;19.83;;;6.80;99.90;;;;;;5077129;28;20480;-65
2024/03/12 08:14:44;;;;;;;27.13;20.60;;;6.80;99.90;;;;;;5077009;28;20443;-65
2024/03/12 08:17:13;;;;;;;29.63;21.77;;;6.70;99.90;;;;;;5077327;28;20576;-67
2024/03/12 08:19:41;;;;;;;21.67;17.70;;;6.80;99.90;;;;;;5079115;28;20421;-69
2024/03/12 08:22:09;;;;;;;23.60;19.07;;;6.70;99.90;;;;;;5082134;28;20519;-69
2024/03/12 08:24:37;;;;;;;21.37;17.50;;;6.80;99.90;;;;;;5083777;28;21026;-70
2024/03/12 08:27:06;;;;;;;23.70;17.47;;;6.70;99.90;;;;;;5085831;28;20496;-70
2024/03/12 08:29:33;;;;;;;24.10;17.87;;;6.70;99.90;;;;;;5087672;28;20963;-69
2024/03/12 08:32:01;;;;;;;19.60;14.70;;;6.80;99.90;;;;;;5087302;28;20933;-69
2024/03/12 08:34:28;;;;;;;18.13;15.63;;;6.80;99.90;;;;;;5089666;28;20461;-69
2024/03/12 08:36:56;;;;;;;18.93;15.47;;;6.80;99.90;;;;;;5089252;28;20461;-68
2024/03/12 08:39:27;;;;;;;19.20;14.70;;;6.80;99.90;;;;;;5090554;28;20457;-69
2024/03/12 08:41:55;;;;;;;16.10;13.37;;;6.80;99.90;;;;;;5090173;28;20496;-69
2024/03/12 08:44:26;;;;;;;18.00;13.90;;;6.90;99.90;;;;;;5085375;28;20468;-69
2024/03/12 08:46:53;;;;;;;23.10;15.13;;;6.90;99.90;;;;;;5084762;28;20470;-69
2024/03/12 08:49:21;;;;;;;20.53;16.77;;;6.90;99.90;;;;;;5088581;28;20457;-69
2024/03/12 08:51:48;;;;;;;21.23;16.23;;;6.70;99.90;;;;;;5090475;28;20461;-69
2024/03/12 08:54:16;;;;;;;18.20;15.07;;;6.80;99.90;;;;;;5092861;28;20458;-70
2024/03/12 08:56:43;;;;;;;22.23;16.93;;;6.80;99.90;;;;;;5092067;28;20457;-68
2024/03/12 08:59:15;;;;;;;21.43;16.50;;;6.80;99.90;;;;;;5092907;28;20544;-69
2024/03/12 09:01:44;;;;;;;23.13;17.60;;;6.80;99.90;;;;;;5096200;28;20500;-69
2024/03/12 09:04:12;;;;;;;23.57;17.33;;;6.90;99.90;;;;;;5095180;28;20491;-69
2024/03/12 09:06:40;;;;;;;25.23;17.60;;;6.90;99.90;;;;;;5095727;28;20465;-70
2024/03/12 09:09:08;;;;;;;27.07;18.83;;;6.90;99.90;;;;;;5096644;28;20458;-69
2024/03/12 09:11:38;;;;;;;28.20;20.27;;;7.00;99.90;;;;;;5096735;28;20457;-70
2024/03/12 09:14:06;;;;;;;33.80;21.30;;;7.00;99.90;;;;;;5096550;28;20460;-70
2024/03/12 09:16:34;;;;;;;27.20;19.70;;;7.00;99.90;;;;;;5096649;28;20465;-70
2024/03/12 09:19:04;;;;;;;29.33;22.43;;;7.00;99.90;;;;;;5097396;28;20495;-70
2024/03/12 09:21:32;;;;;;;32.53;22.40;;;7.00;99.90;;;;;;5097135;28;20560;-71
2024/03/12 09:24:00;;;;;;;31.40;22.67;;;7.00;99.90;;;;;;5094691;28;20471;-70
2024/03/12 09:26:27;;;;;;;32.90;21.40;;;7.00;99.90;;;;;;5094996;28;20493;-71
2024/03/12 09:28:55;;;;;;;33.27;23.33;;;6.90;99.90;;;;;;5097046;28;20526;-71
2024/03/12 09:31:22;;;;;;;29.10;21.30;;;6.90;99.90;;;;;;5097571;28;20886;-71
2024/03/12 09:33:51;;;;;;;40.50;21.37;;;7.00;99.90;;;;;;5096346;28;20520;-72
2024/03/12 09:36:20;;;;;;;29.73;20.87;;;7.10;99.90;;;;;;5095591;28;20933;-70
2024/03/12 09:38:50;;;;;;;26.30;18.57;;;7.20;99.90;;;;;;5091345;28;20457;-71
2024/03/12 09:41:20;;;;;;;25.87;18.80;;;7.10;99.90;;;;;;5092034;28;20532;-70
2024/03/12 09:43:48;;;;;;;26.20;18.90;;;7.20;99.90;;;;;;5093052;28;20469;-71
2024/03/12 09:46:16;;;;;;;26.70;18.00;;;7.20;99.90;;;;;;5096107;28;20461;-70
2024/03/12 09:48:44;;;;;;;26.53;18.90;;;7.20;99.90;;;;;;5097546;28;20480;-72
2024/03/12 09:51:12;;;;;;;24.23;17.30;;;7.30;99.90;;;;;;5097521;28;20486;-72
2024/03/12 09:53:42;;;;;;;21.60;15.83;;;7.20;99.90;;;;;;5094367;28;20457;-70
2024/03/12 09:56:10;;;;;;;24.70;17.17;;;7.10;99.90;;;;;;5084234;28;20663;-67
2024/03/12 09:58:38;;;;;;;23.07;17.13;;;7.10;99.90;;;;;;5082863;28;20473;-68
2024/03/12 10:01:06;;;;;;;24.93;18.03;;;7.10;99.90;;;;;;5084286;28;20489;-70
2024/03/12 10:03:35;;;;;;;28.73;18.77;;;7.00;99.90;;;;;;5087314;28;20476;-70
2024/03/12 10:06:03;;;;;;;27.80;19.13;;;7.10;99.90;;;;;;5089190;28;20465;-70
2024/03/12 10:08:31;;;;;;;32.53;19.90;;;7.20;99.90;;;;;;5088356;28;20493;-70
2024/03/12 10:11:02;;;;;;;27.47;21.20;;;7.20;99.90;;;;;;5084201;28;20752;-67
2024/03/12 10:13:29;;;;;;;28.80;21.17;;;7.40;99.90;;;;;;5080625;28;20461;-68
2024/03/12 10:15:58;;;;;;;30.30;21.43;;;7.90;99.90;;;;;;5080566;28;20464;-68
2024/03/12 10:18:27;;;;;;;31.20;21.37;;;8.10;99.90;;;;;;5080567;28;20469;-68
2024/03/12 10:20:56;;;;;;;29.93;19.80;;;8.00;99.90;;;;;;5080879;28;20552;-69
2024/03/12 10:23:26;;;;;;;26.07;20.10;;;7.90;99.90;;;;;;5080796;28;20493;-69
2024/03/12 10:25:56;;;;;;;28.10;21.00;;;8.00;99.90;;;;;;5080631;28;20466;-69
2024/03/12 10:28:28;;;;;;;29.63;21.30;;;7.80;99.90;;;;;;5080589;28;20493;-68
2024/03/12 10:31:08;;;;;;;28.10;20.93;;;7.80;99.90;;;;;;5080584;28;20465;-68
2024/03/12 10:33:37;;;;;;;25.23;18.70;;;7.90;99.90;;;;;;5080223;28;20472;-69
2024/03/12 10:36:05;;;;;;;30.50;21.00;;;7.80;99.90;;;;;;5079544;28;20457;-68
2024/03/12 10:38:33;;;;;;;27.67;19.63;;;7.90;99.90;;;;;;5079368;28;20888;-68
2024/03/12 10:41:16;;;;;;;28.90;19.13;;;8.00;99.90;;;;;;5079762;28;20465;-68
2024/03/12 10:43:46;;;;;;;28.30;18.50;;;8.10;99.90;;;;;;5080709;28;20493;-68
2024/03/12 10:46:14;;;;;;;30.63;20.07;;;8.00;75.80;;;;;;5080350;28;20481;-68
2024/03/12 10:48:45;;;;;;;29.70;20.73;;;8.00;35.70;;;;;;5081471;28;20464;-69
2024/03/12 10:51:13;;;;;;;27.87;20.60;;;8.00;33.20;;;;;;5081135;28;20563;-68
2024/03/12 10:53:42;;;;;;;28.20;20.90;;;8.10;49.20;;;;;;5081287;28;20461;-68
2024/03/12 10:56:10;;;;;;;31.40;21.97;;;8.00;1.00;;;;;;5078154;28;20492;-67
2024/03/12 10:58:39;;;;;;;30.23;20.70;;;8.10;1.00;;;;;;5076710;28;20457;-66
2024/03/12 11:01:10;;;;;;;36.97;22.90;;;8.10;1.00;;;;;;5076989;28;20744;-67
2024/03/12 11:03:37;;;;;;;28.50;18.57;;;8.10;1.00;;;;;;5076804;28;20493;-67
2024/03/12 11:06:08;;;;;;;28.10;19.60;;;8.10;1.00;;;;;;5076337;28;20883;-65
2024/03/12 11:08:37;;;;;;;23.57;17.37;;;8.10;1.00;;;;;;5076458;28;20496;-66
2024/03/12 11:11:08;;;;;;;30.80;18.80;;;8.10;1.00;;;;;;5076687;28;20497;-67
2024/03/12 11:13:36;;;;;;;31.37;20.73;;;8.10;1.00;;;;;;5077646;28;20879;-67
2024/03/12 11:16:12;;;;;;;27.30;16.90;;;8.00;1.00;;;;;;5077448;28;20462;-66
2024/03/12 11:18:41;;;;;;;27.70;18.07;;;7.90;1.00;;;;;;5077906;28;20514;-66
2024/03/12 11:21:13;;;;;;;29.80;19.23;;;7.60;1.00;;;;;;5077955;28;20575;-67
2024/03/12 11:23:41;;;;;;;37.53;25.10;;;7.50;1.00;;;;;;5077168;28;20497;-67
2024/03/12 11:26:10;;;;;;;30.60;21.87;;;7.40;1.00;;;;;;5077922;28;20511;-67
2024/03/12 11:28:49;;;;;;;41.03;27.60;;;7.50;16.00;;;;;;5077959;28;20614;-66
2024/03/12 11:31:19;;;;;;;26.10;18.93;;;7.50;27.80;;;;;;5078138;28;20438;-67
2024/03/12 11:33:51;;;;;;;33.17;25.10;;;7.50;23.40;;;;;;5077437;28;20434;-67
2024/03/12 11:36:39;;;;;;;29.83;20.33;;;7.60;28.40;;;;;;5077843;28;20907;-67
2024/03/12 11:39:12;;;;;;;26.63;19.97;;;7.50;1.00;;;;;;5077566;28;20465;-66
2024/03/12 11:42:11;;;;;;;26.93;19.03;;;7.40;1.00;;;;;;5077188;28;20453;-67
2024/03/12 11:44:49;;;;;;;25.53;18.77;;;7.40;1.00;;;;;;5077566;28;20431;-66
2024/03/12 11:47:30;;;;;;;28.40;20.67;;;7.40;1.00;;;;;;5076141;28;20477;-65
2024/03/12 11:49:58;;;;;;;27.03;19.90;;;7.40;1.00;;;;;;5077241;28;20441;-65
2024/03/12 11:52:27;;;;;;;27.77;19.03;;;7.40;1.00;;;;;;5077282;28;20582;-67
2024/03/12 11:54:56;;;;;;;27.90;19.60;;;7.50;6.40;;;;;;5077651;28;20950;-67
2024/03/12 11:57:26;;;;;;;26.77;20.43;;;7.50;2.50;;;;;;5076906;28;20443;-68
2024/03/12 11:59:55;;;;;;;27.27;18.93;;;7.50;7.50;;;;;;5077178;28;20465;-68
2024/03/12 12:02:26;;;;;;;27.10;20.10;;;7.50;1.00;;;;;;5077206;28;20493;-68
2024/03/12 12:04:55;;;;;;;26.33;19.67;;;7.60;17.50;;;;;;5076425;28;20468;-69
2024/03/12 12:07:24;;;;;;;25.53;19.33;;;7.70;1.00;;;;;;5076416;28;20460;-67
2024/03/12 12:09:54;;;;;;;30.47;20.77;;;7.80;1.00;;;;;;5077180;28;20551;-66
2024/03/12 12:12:22;;;;;;;26.77;19.83;;;7.90;1.00;;;;;;5076509;28;20474;-65
2024/03/12 12:14:50;;;;;;;27.77;20.40;;;7.90;99.90;;;;;;5076944;28;20465;-66
2024/03/12 12:17:23;;;;;;;30.73;20.60;;;7.90;99.90;;;;;;5077445;28;20854;-65
2024/03/12 12:20:13;;;;;;;27.97;21.00;;;7.90;99.90;;;;;;5076930;28;20457;-65
2024/03/12 12:22:45;;;;;;;26.30;19.80;;;7.90;87.80;;;;;;5079828;28;20984;-65
2024/03/12 12:25:13;;;;;;;29.63;21.70;;;7.80;1.00;;;;;;5079968;28;20461;-64
2024/03/12 12:27:41;;;;;;;29.87;22.17;;;7.70;99.90;;;;;;5079211;28;20583;-65
2024/03/12 12:30:14;;;;;;;31.67;23.30;;;7.80;99.90;;;;;;5079806;28;20826;-65
2024/03/12 12:32:42;;;;;;;32.17;23.20;;;7.60;39.50;;;;;;5080237;28;20457;-65
2024/03/12 12:35:13;;;;;;;37.23;23.90;;;7.60;74.60;;;;;;5081134;28;20564;-65
2024/03/12 12:37:46;;;;;;;37.50;26.77;;;7.60;1.00;;;;;;5081078;28;20461;-64
2024/03/12 12:40:17;;;;;;;31.17;23.90;;;7.70;1.00;;;;;;5081012;28;20539;-65
2024/03/12 12:42:45;;;;;;;35.47;25.53;;;7.70;1.00;;;;;;5080820;28;20503;-64
2024/03/12 12:45:13;;;;;;;37.53;25.37;;;7.90;62.20;;;;;;5079964;28;20894;-64
2024/03/12 12:47:48;;;;;;;37.27;25.77;;;8.00;69.60;;;;;;5077570;28;20468;-64
2024/03/12 12:50:28;;;;;;;32.83;23.73;;;8.20;37.00;;;;;;5079053;28;20502;-64
2024/03/12 12:53:00;;;;;;;28.57;22.80;;;8.20;1.00;;;;;;5078842;28;20900;-63